Time;durP1;ratioP1;P1;durP2;ratioP2;P2;SDS_P1;SDS_P2;PMS_P1;PMS_P2;Temp;Humidity;BMP_temperature;BMP_pressure;BME280_temperature;BME280_humidity;BME280_pressure;Samples;Min_cycle;Max_cycle;Signal;HPM_P1;HPM_P2
2022/03/12 00:01:29;;;;;;;8.48;5.55;;;6.40;64.80;;;;;;5067434;28;20032;-74
2022/03/12 00:03:55;;;;;;;8.25;5.70;;;6.30;64.90;;;;;;5071843;28;20043;-76
2022/03/12 00:06:23;;;;;;;9.35;6.00;;;6.30;65.20;;;;;;5051815;28;20037;-74
2022/03/12 00:08:51;;;;;;;9.20;6.07;;;6.30;65.30;;;;;;5051064;28;20041;-74
2022/03/12 00:11:18;;;;;;;11.80;5.95;;;6.30;65.70;;;;;;5055027;28;20417;-74
2022/03/12 00:13:45;;;;;;;8.15;5.57;;;6.30;65.70;;;;;;5068381;28;20041;-74
2022/03/12 00:16:16;;;;;;;9.52;5.85;;;6.30;65.80;;;;;;5054309;28;20036;-74
2022/03/12 00:18:44;;;;;;;9.10;5.55;;;6.30;65.90;;;;;;5074091;28;20044;-74
2022/03/12 00:21:12;;;;;;;10.20;6.05;;;6.20;65.80;;;;;;5052040;28;20475;-74
2022/03/12 00:23:49;;;;;;;10.55;5.70;;;6.20;65.80;;;;;;5055128;28;20037;-74
2022/03/12 00:26:16;;;;;;;9.93;5.30;;;6.20;66.00;;;;;;5070200;28;20115;-74
2022/03/12 00:28:43;;;;;;;8.10;5.25;;;6.30;66.00;;;;;;5031784;28;20116;-74
2022/03/12 00:31:09;;;;;;;7.53;5.40;;;6.30;66.20;;;;;;5055624;28;20037;-74
2022/03/12 00:33:35;;;;;;;8.88;6.15;;;6.20;66.00;;;;;;5067722;28;20058;-74
2022/03/12 00:36:03;;;;;;;9.48;5.38;;;6.30;66.10;;;;;;5067944;28;20056;-74
2022/03/12 00:38:29;;;;;;;9.68;5.50;;;6.20;66.10;;;;;;5053423;28;20380;-74
2022/03/12 00:40:55;;;;;;;8.65;5.40;;;6.20;66.30;;;;;;5051265;28;20044;-74
2022/03/12 00:43:21;;;;;;;8.85;5.40;;;6.20;66.20;;;;;;5066578;28;20526;-74
2022/03/12 00:45:49;;;;;;;12.27;6.15;;;6.20;66.40;;;;;;5064296;28;20555;-74
2022/03/12 00:48:16;;;;;;;10.70;6.10;;;6.20;66.40;;;;;;5064612;28;20079;-74
2022/03/12 00:50:42;;;;;;;10.35;5.68;;;6.20;66.50;;;;;;5045373;28;20045;-74
2022/03/12 00:53:08;;;;;;;8.30;5.13;;;6.20;66.50;;;;;;5065909;28;20059;-74
2022/03/12 00:55:34;;;;;;;9.95;5.90;;;6.20;66.60;;;;;;5068477;28;20041;-74
2022/03/12 00:58:00;;;;;;;11.57;5.53;;;6.20;66.70;;;;;;5068794;28;20044;-74
2022/03/12 01:00:26;;;;;;;8.32;5.78;;;6.20;66.60;;;;;;5071531;28;20072;-74
2022/03/12 01:02:52;;;;;;;9.13;5.65;;;6.20;67.00;;;;;;5054464;28;20078;-74
2022/03/12 01:05:21;;;;;;;10.65;5.50;;;6.10;67.30;;;;;;5069966;28;20033;-74
2022/03/12 01:07:48;;;;;;;9.93;5.47;;;6.10;67.20;;;;;;5070100;28;20436;-74
2022/03/12 01:10:15;;;;;;;9.82;5.53;;;6.10;67.40;;;;;;5069059;28;20047;-74
2022/03/12 01:12:43;;;;;;;10.07;5.97;;;6.10;67.30;;;;;;5058565;28;20126;-75
2022/03/12 01:15:10;;;;;;;9.43;6.15;;;6.00;67.50;;;;;;5070285;28;20111;-74
2022/03/12 01:17:35;;;;;;;11.35;5.40;;;6.00;67.80;;;;;;5077577;28;20063;-75
2022/03/12 01:20:06;;;;;;;11.23;5.30;;;6.00;68.10;;;;;;5070615;28;20036;-74
2022/03/12 01:22:35;;;;;;;8.60;5.15;;;5.90;68.30;;;;;;5076010;28;20318;-73
2022/03/12 01:25:03;;;;;;;8.45;5.70;;;5.90;68.70;;;;;;5071434;28;20119;-76
2022/03/12 01:27:28;;;;;;;7.63;5.28;;;5.90;68.90;;;;;;5071765;28;20040;-74
2022/03/12 01:29:54;;;;;;;9.40;6.20;;;5.90;69.20;;;;;;5076355;28;20040;-75
2022/03/12 01:32:20;;;;;;;8.25;5.47;;;5.90;69.10;;;;;;5054501;28;20048;-74
2022/03/12 01:34:45;;;;;;;8.95;6.15;;;5.90;69.10;;;;;;5072130;28;20120;-75
2022/03/12 01:37:14;;;;;;;11.93;5.57;;;5.90;69.30;;;;;;5070949;28;20041;-74
2022/03/12 01:39:40;;;;;;;9.88;5.65;;;5.90;69.40;;;;;;5050515;28;20124;-75
2022/03/12 01:42:07;;;;;;;8.00;5.63;;;5.90;69.40;;;;;;5068019;28;20135;-75
2022/03/12 01:44:33;;;;;;;8.75;5.78;;;5.90;69.40;;;;;;5066047;28;20044;-74
2022/03/12 01:47:05;;;;;;;8.45;5.88;;;5.90;70.00;;;;;;5054910;28;20040;-75
2022/03/12 01:49:31;;;;;;;9.25;5.68;;;5.80;69.90;;;;;;5053279;28;20045;-75
2022/03/12 01:51:56;;;;;;;10.73;6.07;;;5.80;69.90;;;;;;5057110;28;20048;-74
2022/03/12 01:54:25;;;;;;;13.05;5.47;;;5.80;69.90;;;;;;5053067;28;20052;-73
2022/03/12 01:56:53;;;;;;;12.60;6.28;;;5.80;70.00;;;;;;5052326;28;20048;-74
2022/03/12 01:59:20;;;;;;;11.07;5.63;;;5.80;69.80;;;;;;5052416;28;20102;-74
2022/03/12 02:01:51;;;;;;;7.55;5.22;;;5.80;70.00;;;;;;5052233;28;20472;-74
2022/03/12 02:04:19;;;;;;;7.18;5.15;;;5.80;70.10;;;;;;5058638;28;20116;-74
2022/03/12 02:06:46;;;;;;;9.38;5.72;;;5.80;69.80;;;;;;5068930;28;20067;-74
2022/03/12 02:09:15;;;;;;;9.55;5.68;;;5.80;69.90;;;;;;5037525;28;20032;-74
2022/03/12 02:11:43;;;;;;;8.63;5.57;;;5.80;70.20;;;;;;5052524;28;20056;-75
2022/03/12 02:14:15;;;;;;;7.95;5.38;;;5.80;70.20;;;;;;5069155;28;20045;-75
2022/03/12 02:17:01;;;;;;;8.60;5.35;;;5.80;70.40;;;;;;5045799;28;20090;-75
2022/03/12 02:19:29;;;;;;;11.18;5.68;;;5.80;70.60;;;;;;5052737;28;20426;-75
2022/03/12 02:21:58;;;;;;;8.25;5.72;;;5.80;70.70;;;;;;5072238;28;20075;-75
2022/03/12 02:24:29;;;;;;;9.55;5.60;;;5.70;71.30;;;;;;5072927;28;20043;-75
2022/03/12 02:26:57;;;;;;;12.73;6.00;;;5.80;71.30;;;;;;5058897;28;20036;-75
2022/03/12 02:29:24;;;;;;;8.57;5.85;;;5.70;71.40;;;;;;5052685;28;20143;-75
2022/03/12 02:31:57;;;;;;;8.18;5.90;;;5.80;71.50;;;;;;5076257;28;20039;-75
2022/03/12 02:34:32;;;;;;;11.45;6.60;;;5.70;71.40;;;;;;5050973;28;20143;-74
2022/03/12 02:36:58;;;;;;;7.93;5.82;;;5.80;71.40;;;;;;5065734;28;20491;-75
2022/03/12 02:39:27;;;;;;;9.60;5.90;;;5.80;71.50;;;;;;5055043;28;20036;-75
2022/03/12 02:41:55;;;;;;;8.38;5.60;;;5.70;72.00;;;;;;5074230;28;20136;-75
2022/03/12 02:44:24;;;;;;;9.38;6.38;;;5.80;72.20;;;;;;5069263;28;20052;-74
2022/03/12 02:47:14;;;;;;;10.32;6.22;;;5.80;72.20;;;;;;5070840;28;20094;-75
2022/03/12 02:49:53;;;;;;;9.38;6.10;;;5.80;72.10;;;;;;5070268;28;20123;-75
2022/03/12 02:52:21;;;;;;;10.02;5.28;;;5.70;72.70;;;;;;5072702;28;20044;-75
2022/03/12 02:54:49;;;;;;;9.95;6.00;;;5.70;72.70;;;;;;5037067;28;20085;-75
2022/03/12 02:57:15;;;;;;;9.10;5.50;;;5.70;72.70;;;;;;5070118;28;20075;-75
2022/03/12 02:59:43;;;;;;;8.95;6.43;;;5.70;72.60;;;;;;5052301;28;20036;-75
2022/03/12 03:02:11;;;;;;;7.97;5.50;;;5.70;72.60;;;;;;5064388;28;20209;-75
2022/03/12 03:04:39;;;;;;;7.60;5.43;;;5.70;73.00;;;;;;5072260;28;20052;-75
2022/03/12 03:07:11;;;;;;;9.70;6.55;;;5.70;73.70;;;;;;5058776;28;20086;-75
2022/03/12 03:09:38;;;;;;;9.52;5.45;;;5.80;72.70;;;;;;5076324;28;20487;-75
2022/03/12 03:12:06;;;;;;;9.45;6.50;;;5.70;73.00;;;;;;5069520;28;20039;-75
2022/03/12 03:14:32;;;;;;;8.77;6.18;;;5.70;73.00;;;;;;5051870;28;20044;-75
2022/03/12 03:17:01;;;;;;;10.18;6.47;;;5.70;73.70;;;;;;5070206;28;20406;-75
2022/03/12 03:19:27;;;;;;;10.73;6.65;;;5.70;73.30;;;;;;5069919;28;20048;-74
2022/03/12 03:21:54;;;;;;;10.25;6.13;;;5.80;73.10;;;;;;5070421;28;20052;-74
2022/03/12 03:24:20;;;;;;;9.35;5.90;;;5.80;73.00;;;;;;5069081;28;20136;-74
2022/03/12 03:26:55;;;;;;;10.10;5.93;;;5.80;73.00;;;;;;5068170;28;20033;-74
2022/03/12 03:29:23;;;;;;;9.27;6.20;;;5.80;73.20;;;;;;5069041;28;20040;-74
2022/03/12 03:31:49;;;;;;;8.70;5.82;;;5.80;73.10;;;;;;5073507;28;20067;-74
2022/03/12 03:34:16;;;;;;;9.65;5.93;;;5.80;73.80;;;;;;5074114;28;20040;-74
2022/03/12 03:36:41;;;;;;;;;;;5.80;73.20;;;;;;5074958;28;20056;-74
2022/03/12 03:39:08;;;;;;;11.32;6.32;;;5.70;73.20;;;;;;5052294;28;19920;-74
2022/03/12 03:41:33;;;;;;;;;;;5.80;73.00;;;;;;5068567;28;20808;-74
2022/03/12 03:44:00;;;;;;;11.00;5.60;;;5.80;72.60;;;;;;5052076;28;19935;-74
2022/03/12 03:46:26;;;;;;;11.55;5.93;;;5.80;72.80;;;;;;5068325;28;20052;-74
2022/03/12 03:48:53;;;;;;;8.73;6.15;;;5.80;72.90;;;;;;5068521;28;20055;-74
2022/03/12 03:51:20;;;;;;;12.13;6.53;;;5.80;72.90;;;;;;5068438;28;20093;-74
2022/03/12 03:53:46;;;;;;;10.65;6.30;;;5.80;72.70;;;;;;5051597;28;20032;-74
2022/03/12 03:56:12;;;;;;;8.38;5.88;;;5.80;72.90;;;;;;5054118;28;20563;-74
2022/03/12 03:58:38;;;;;;;8.82;5.93;;;5.80;72.90;;;;;;5073866;28;20047;-74
2022/03/12 04:01:15;;;;;;;8.82;6.63;;;5.80;72.90;;;;;;5068936;28;20123;-74
2022/03/12 04:03:48;;;;;;;10.07;5.93;;;5.80;72.80;;;;;;5068003;28;20067;-74
2022/03/12 04:06:16;;;;;;;8.85;5.93;;;5.80;72.90;;;;;;5044626;28;20388;-74
2022/03/12 04:08:42;;;;;;;10.73;6.88;;;5.80;73.00;;;;;;5068352;28;20044;-75
2022/03/12 04:11:13;;;;;;;10.82;6.53;;;5.80;73.20;;;;;;5068314;28;20060;-75
2022/03/12 04:13:39;;;;;;;8.50;6.45;;;5.70;73.80;;;;;;5056950;28;20483;-75
2022/03/12 04:16:06;;;;;;;7.85;6.03;;;5.70;73.00;;;;;;5052648;28;20040;-75
2022/03/12 04:18:32;;;;;;;10.95;5.72;;;5.70;73.80;;;;;;5051938;28;20732;-75
2022/03/12 04:20:58;;;;;;;9.45;5.78;;;5.70;73.30;;;;;;5068784;28;20060;-74
2022/03/12 04:23:27;;;;;;;9.50;6.60;;;5.70;73.70;;;;;;5062511;28;20082;-75
2022/03/12 04:25:58;;;;;;;12.15;7.05;;;5.60;73.60;;;;;;5073351;28;20064;-75
2022/03/12 04:28:27;;;;;;;15.55;6.40;;;5.60;73.80;;;;;;5069837;28;20098;-75
2022/03/12 04:30:52;;;;;;;9.98;6.35;;;5.60;73.50;;;;;;5070075;28;20476;-75
2022/03/12 04:33:21;;;;;;;9.27;6.20;;;5.70;73.70;;;;;;5068985;28;20086;-75
2022/03/12 04:35:49;;;;;;;8.50;6.05;;;5.60;73.60;;;;;;5067438;28;20538;-75
2022/03/12 04:38:15;;;;;;;10.95;6.35;;;5.60;73.50;;;;;;5071192;28;20395;-75
2022/03/12 04:40:44;;;;;;;8.68;6.18;;;5.60;73.70;;;;;;5068253;28;20040;-75
2022/03/12 04:43:12;;;;;;;10.40;6.20;;;5.60;74.10;;;;;;5073763;28;20046;-74
2022/03/12 04:45:41;;;;;;;9.50;6.25;;;5.60;73.70;;;;;;5051155;28;20086;-74
2022/03/12 04:48:07;;;;;;;8.38;5.97;;;5.60;73.90;;;;;;5069706;28;20043;-74
2022/03/12 04:50:32;;;;;;;9.07;6.53;;;5.50;73.90;;;;;;5072200;28;20387;-73
2022/03/12 04:53:00;;;;;;;9.15;5.82;;;5.60;74.20;;;;;;5055752;28;20106;-75
2022/03/12 04:55:28;;;;;;;11.52;6.40;;;5.50;74.20;;;;;;5079372;28;20044;-74
2022/03/12 04:57:55;;;;;;;8.52;5.78;;;5.50;74.60;;;;;;5075642;28;20040;-74
2022/03/12 05:00:27;;;;;;;;;;;5.50;74.30;;;;;;5071829;28;20769;-74
2022/03/12 05:02:54;;;;;;;10.73;5.72;;;5.50;74.30;;;;;;5054063;28;19966;-74
2022/03/12 05:05:21;;;;;;;9.75;6.32;;;5.50;74.60;;;;;;5074654;28;20399;-73
2022/03/12 05:07:47;;;;;;;;;;;5.50;74.70;;;;;;5072986;28;20352;-73
2022/03/12 05:10:16;;;;;;;9.07;5.68;;;5.50;74.60;;;;;;5070661;28;19981;-74
2022/03/12 05:12:43;;;;;;;8.10;5.53;;;5.50;75.00;;;;;;5063189;28;20044;-74
2022/03/12 05:15:14;;;;;;;9.30;5.80;;;5.50;74.80;;;;;;5052209;28;20594;-74
2022/03/12 05:17:46;;;;;;;7.68;5.80;;;5.50;74.60;;;;;;5071217;28;20045;-74
2022/03/12 05:20:18;;;;;;;9.18;6.18;;;5.50;74.40;;;;;;5070177;28;20048;-73
2022/03/12 05:22:44;;;;;;;11.30;5.35;;;5.50;74.60;;;;;;5054403;28;20046;-73
2022/03/12 05:25:10;;;;;;;8.38;5.43;;;5.50;74.80;;;;;;5071243;28;20043;-74
2022/03/12 05:27:36;;;;;;;8.45;6.18;;;5.50;74.90;;;;;;5057329;28;20119;-74
2022/03/12 05:30:04;;;;;;;9.03;5.53;;;5.50;75.00;;;;;;5062050;28;20500;-74
2022/03/12 05:32:29;;;;;;;7.35;5.30;;;5.50;75.70;;;;;;5056979;28;20677;-74
2022/03/12 05:34:55;;;;;;;8.05;5.18;;;5.50;75.80;;;;;;5055302;28;20047;-74
2022/03/12 05:37:22;;;;;;;10.43;5.60;;;5.40;75.60;;;;;;5072054;28;20051;-75
2022/03/12 05:39:51;;;;;;;7.90;5.65;;;5.40;75.60;;;;;;5070722;28;20502;-75
2022/03/12 05:42:22;;;;;;;7.22;5.28;;;5.40;76.30;;;;;;5057332;28;20064;-74
2022/03/12 05:44:56;;;;;;;8.60;5.88;;;5.40;75.90;;;;;;5070026;28;20058;-74
2022/03/12 05:47:23;;;;;;;7.65;5.57;;;5.40;76.00;;;;;;5071446;28;20091;-74
2022/03/12 05:49:49;;;;;;;;;;;5.40;75.80;;;;;;5071511;28;20112;-74
2022/03/12 05:52:16;;;;;;;7.97;5.13;;;5.50;76.00;;;;;;5037841;28;19920;-74
2022/03/12 05:54:43;;;;;;;;;;;5.40;76.00;;;;;;5054272;28;20044;-75
2022/03/12 05:57:09;;;;;;;6.95;5.07;;;5.40;76.00;;;;;;5070340;28;19974;-74
2022/03/12 05:59:36;;;;;;;7.60;5.13;;;5.40;76.40;;;;;;5072053;28;20044;-74
2022/03/12 06:02:02;;;;;;;8.50;5.40;;;5.40;76.10;;;;;;5056610;28;20399;-74
2022/03/12 06:04:27;;;;;;;6.55;4.68;;;5.40;75.90;;;;;;5058859;28;20052;-74
2022/03/12 06:06:54;;;;;;;8.32;5.22;;;5.40;76.40;;;;;;5070788;28;20086;-74
2022/03/12 06:09:20;;;;;;;8.00;5.55;;;5.40;75.80;;;;;;5057150;28;20032;-74
2022/03/12 06:11:47;;;;;;;6.82;4.88;;;5.40;75.60;;;;;;5053831;28;20040;-74
2022/03/12 06:14:15;;;;;;;8.18;5.28;;;5.40;75.10;;;;;;5067477;28;20040;-75
2022/03/12 06:16:46;;;;;;;12.18;6.22;;;5.40;75.00;;;;;;5053993;28;20040;-74
2022/03/12 06:19:11;;;;;;;8.07;5.00;;;5.40;74.90;;;;;;5054671;28;20048;-74
2022/03/12 06:21:37;;;;;;;9.43;5.78;;;5.50;74.80;;;;;;5070807;28;20036;-74
2022/03/12 06:24:03;;;;;;;8.20;5.85;;;5.50;74.80;;;;;;5071812;28;20501;-74
2022/03/12 06:26:35;;;;;;;8.20;5.70;;;5.50;74.60;;;;;;5070015;28;20123;-74
2022/03/12 06:29:03;;;;;;;6.57;5.03;;;5.50;74.50;;;;;;5074234;28;20037;-74
2022/03/12 06:31:31;;;;;;;7.85;5.20;;;5.50;74.60;;;;;;5070330;28;20105;-74
2022/03/12 06:33:57;;;;;;;6.93;5.40;;;5.50;74.70;;;;;;5052698;28;20430;-74
2022/03/12 06:36:23;;;;;;;;;;;5.50;74.70;;;;;;5059321;28;20471;-73
2022/03/12 06:38:49;;;;;;;7.10;5.15;;;5.50;74.60;;;;;;5075728;28;19931;-73
2022/03/12 06:41:20;;;;;;;8.10;5.53;;;5.50;74.60;;;;;;5058877;28;20085;-77
2022/03/12 06:43:47;;;;;;;6.93;5.30;;;5.50;74.90;;;;;;5068652;28;20044;-76
2022/03/12 06:46:14;;;;;;;8.05;5.07;;;5.50;75.20;;;;;;5036210;28;20079;-77
2022/03/12 06:48:41;;;;;;;9.20;5.70;;;5.50;75.40;;;;;;5057961;28;20036;-76
2022/03/12 06:51:08;;;;;;;7.55;4.88;;;5.50;75.30;;;;;;5059497;28;20475;-76
2022/03/12 06:53:34;;;;;;;8.13;5.18;;;5.50;75.70;;;;;;5067194;28;20426;-76
2022/03/12 06:56:00;;;;;;;8.13;5.47;;;5.50;75.70;;;;;;5072627;28;20044;-76
2022/03/12 06:58:26;;;;;;;8.77;5.13;;;5.50;76.10;;;;;;5052678;28;20126;-77
2022/03/12 07:00:52;;;;;;;8.32;5.45;;;5.50;76.30;;;;;;5070117;28;20722;-75
2022/03/12 07:03:17;;;;;;;8.10;5.60;;;5.50;76.50;;;;;;5073052;28;20163;-74
2022/03/12 07:05:43;;;;;;;7.68;5.22;;;5.50;76.60;;;;;;5071632;28;20127;-74
2022/03/12 07:08:09;;;;;;;7.10;5.05;;;5.50;76.60;;;;;;5072932;28;20341;-75
2022/03/12 07:10:35;;;;;;;7.40;4.90;;;5.60;76.60;;;;;;5057120;28;20040;-75
2022/03/12 07:13:00;;;;;;;6.95;4.85;;;5.60;76.80;;;;;;5052740;28;20095;-77
2022/03/12 07:15:26;;;;;;;6.53;4.63;;;5.70;76.90;;;;;;5069208;28;20376;-76
2022/03/12 07:17:52;;;;;;;8.50;4.80;;;5.70;77.00;;;;;;5051735;28;20053;-76
2022/03/12 07:20:18;;;;;;;7.10;5.00;;;5.80;77.30;;;;;;5047848;28;20068;-76
2022/03/12 07:22:45;;;;;;;7.65;4.95;;;5.80;76.80;;;;;;5066573;28;20049;-76
2022/03/12 07:25:12;;;;;;;8.82;4.93;;;5.80;77.00;;;;;;5051345;28;20047;-77
2022/03/12 07:27:39;;;;;;;6.72;4.88;;;5.80;76.90;;;;;;5052192;28;20610;-77
2022/03/12 07:30:06;;;;;;;7.97;4.88;;;5.80;76.90;;;;;;5069263;28;20044;-77
2022/03/12 07:32:32;;;;;;;8.52;5.53;;;5.80;76.80;;;;;;5075033;28;20052;-76
2022/03/12 07:34:58;;;;;;;7.43;4.93;;;5.80;76.30;;;;;;5071433;28;20466;-76
2022/03/12 07:37:24;;;;;;;10.73;5.43;;;5.90;76.80;;;;;;5070054;28;20380;-76
2022/03/12 07:39:49;;;;;;;10.40;4.90;;;6.10;76.80;;;;;;5068084;28;20051;-76
2022/03/12 07:42:15;;;;;;;10.32;5.45;;;6.30;76.30;;;;;;5067880;28;20098;-76
2022/03/12 07:44:41;;;;;;;7.05;5.38;;;6.40;75.20;;;;;;5068484;28;20121;-77
2022/03/12 07:47:08;;;;;;;8.15;5.18;;;6.40;74.60;;;;;;5068084;28;20132;-78
2022/03/12 07:49:34;;;;;;;8.55;5.40;;;6.50;75.00;;;;;;5068722;28;20054;-78
2022/03/12 07:52:00;;;;;;;;;;;6.60;75.00;;;;;;5069123;28;20037;-77
2022/03/12 07:54:26;;;;;;;7.90;5.30;;;6.70;74.40;;;;;;5067671;28;19934;-76
2022/03/12 07:56:51;;;;;;;9.43;5.40;;;6.80;74.60;;;;;;5052872;28;20040;-77
2022/03/12 07:59:18;;;;;;;9.65;5.50;;;7.00;75.10;;;;;;5056345;28;20047;-78
2022/03/12 08:01:45;;;;;;;9.00;5.80;;;7.10;74.90;;;;;;5072807;28;20052;-78
2022/03/12 08:04:11;;;;;;;7.78;5.70;;;7.30;74.40;;;;;;5068738;28;20132;-78
2022/03/12 08:06:36;;;;;;;8.55;5.88;;;7.40;73.90;;;;;;5065131;28;20047;-78
2022/03/12 08:09:02;;;;;;;8.57;5.20;;;7.50;73.50;;;;;;5052306;28;20036;-77
2022/03/12 08:11:28;;;;;;;9.25;6.15;;;7.70;74.00;;;;;;5067564;28;20191;-77
2022/03/12 08:13:59;;;;;;;7.70;5.63;;;7.90;72.70;;;;;;5068898;28;20036;-77
2022/03/12 08:16:25;;;;;;;12.15;5.90;;;7.90;72.00;;;;;;5050847;28;20515;-76
2022/03/12 08:18:51;;;;;;;10.48;6.25;;;7.90;71.60;;;;;;5067827;28;20044;-75
2022/03/12 08:21:19;;;;;;;9.77;6.18;;;7.90;72.00;;;;;;5067978;28;20058;-76
2022/03/12 08:23:45;;;;;;;7.97;5.75;;;7.90;72.30;;;;;;5071995;28;20087;-76
2022/03/12 08:26:11;;;;;;;8.48;5.55;;;8.00;72.80;;;;;;5072343;28;20143;-76
2022/03/12 08:28:37;;;;;;;8.20;5.70;;;8.00;72.60;;;;;;5071653;28;20029;-76
2022/03/12 08:31:05;;;;;;;8.52;5.85;;;8.10;72.60;;;;;;5055464;28;20040;-76
2022/03/12 08:33:31;;;;;;;7.68;5.70;;;8.10;73.10;;;;;;5055346;28;20040;-77
2022/03/12 08:35:57;;;;;;;7.13;5.50;;;8.20;73.40;;;;;;5055631;28;20036;-77
2022/03/12 08:38:24;;;;;;;8.40;5.93;;;8.20;73.50;;;;;;5038910;28;20402;-77
2022/03/12 08:40:51;;;;;;;9.35;5.80;;;8.30;74.30;;;;;;5044911;28;20062;-76
2022/03/12 08:43:17;;;;;;;7.82;5.22;;;8.30;74.20;;;;;;5056345;28;20036;-79
2022/03/12 08:45:43;;;;;;;7.68;5.53;;;8.40;74.90;;;;;;5040172;28;20136;-79
2022/03/12 08:48:10;;;;;;;8.00;5.28;;;8.60;75.20;;;;;;5072465;28;20048;-77
2022/03/12 08:50:36;;;;;;;10.40;5.55;;;8.70;75.70;;;;;;5071478;28;20067;-77
2022/03/12 08:53:02;;;;;;;7.38;5.30;;;8.90;75.60;;;;;;5072353;28;20045;-77
2022/03/12 08:55:27;;;;;;;8.15;5.70;;;9.10;75.20;;;;;;5071375;28;20052;-77
2022/03/12 08:57:55;;;;;;;8.52;6.22;;;9.10;75.10;;;;;;5071728;28;20090;-77
2022/03/12 09:00:23;;;;;;;8.73;6.15;;;9.20;74.80;;;;;;5071243;28;20082;-76
2022/03/12 09:02:49;;;;;;;8.65;6.30;;;9.30;75.20;;;;;;5071298;28;20037;-77
2022/03/12 09:05:15;;;;;;;;;;;9.30;75.30;;;;;;5034654;28;20191;-76
2022/03/12 09:07:42;;;;;;;9.70;6.57;;;9.40;75.70;;;;;;5066236;28;19917;-75
2022/03/12 09:10:11;;;;;;;8.30;6.32;;;9.50;75.90;;;;;;5052278;28;20040;-78
2022/03/12 09:12:41;;;;;;;9.32;6.95;;;9.60;76.30;;;;;;5071883;28;20055;-77
2022/03/12 09:15:08;;;;;;;9.95;6.28;;;9.70;76.60;;;;;;5070930;28;20064;-80
2022/03/12 09:17:34;;;;;;;8.80;6.32;;;9.80;76.90;;;;;;5071333;28;20041;-80
2022/03/12 09:20:01;;;;;;;9.05;6.97;;;9.90;77.40;;;;;;5054683;28;20045;-80
2022/03/12 09:22:27;;;;;;;10.10;7.15;;;10.00;77.30;;;;;;5071792;28;20075;-80
2022/03/12 09:24:52;;;;;;;9.05;6.68;;;10.20;77.40;;;;;;5071574;28;20133;-80
2022/03/12 09:27:18;;;;;;;9.73;6.90;;;10.30;77.10;;;;;;5055451;28;20041;-80
2022/03/12 09:29:44;;;;;;;10.73;6.88;;;10.50;77.40;;;;;;5054823;28;20464;-80
2022/03/12 09:32:10;;;;;;;10.18;7.22;;;10.60;77.00;;;;;;5054811;28;20044;-80
2022/03/12 09:34:37;;;;;;;8.80;6.60;;;10.70;77.30;;;;;;5070603;28;20036;-80
2022/03/12 09:37:04;;;;;;;10.00;7.57;;;10.80;77.70;;;;;;5054617;28;20047;-80
2022/03/12 09:39:30;;;;;;;9.68;6.63;;;10.80;78.70;;;;;;5071367;28;20400;-79
2022/03/12 09:41:56;;;;;;;8.95;6.47;;;11.10;79.00;;;;;;5071309;28;20040;-80
2022/03/12 09:44:22;;;;;;;9.55;7.15;;;11.20;79.90;;;;;;5071071;28;20040;-80
2022/03/12 09:46:47;;;;;;;9.38;6.80;;;11.40;79.60;;;;;;5054712;28;20052;-80
2022/03/12 09:49:14;;;;;;;9.98;7.35;;;11.50;80.20;;;;;;5036636;28;20396;-80
2022/03/12 09:51:40;;;;;;;9.98;7.35;;;11.50;81.30;;;;;;5049095;28;20115;-80
2022/03/12 09:54:06;;;;;;;7.95;6.47;;;11.60;81.50;;;;;;5070445;28;20043;-80
2022/03/12 09:56:31;;;;;;;8.70;6.55;;;11.60;82.60;;;;;;5071305;28;20041;-80
2022/03/12 09:58:57;;;;;;;9.57;7.20;;;11.70;82.80;;;;;;5054434;28;20199;-80
2022/03/12 10:01:23;;;;;;;9.90;6.97;;;11.90;83.50;;;;;;5054055;28;20040;-79
2022/03/12 10:03:49;;;;;;;8.77;7.10;;;11.90;83.10;;;;;;5053968;28;20040;-79
2022/03/12 10:06:15;;;;;;;10.48;6.80;;;11.80;83.60;;;;;;5070398;28;20111;-80
2022/03/12 10:08:41;;;;;;;9.43;7.03;;;11.90;84.30;;;;;;5070974;28;20036;-80
2022/03/12 10:11:08;;;;;;;8.65;7.05;;;11.90;84.40;;;;;;5054073;28;20082;-79
2022/03/12 10:13:34;;;;;;;11.75;7.28;;;11.90;84.80;;;;;;5053938;28;20037;-79
2022/03/12 10:15:59;;;;;;;;;;;11.90;85.10;;;;;;5070979;28;20090;-80
2022/03/12 10:18:31;;;;;;;8.55;7.18;;;12.00;86.10;;;;;;5055116;28;20405;-80
2022/03/12 10:20:58;;;;;;;10.55;7.10;;;12.00;86.80;;;;;;5054229;28;20045;-79
2022/03/12 10:23:24;;;;;;;9.93;7.25;;;12.00;86.90;;;;;;5053861;28;20400;-79
2022/03/12 10:25:50;;;;;;;9.70;7.13;;;12.10;87.80;;;;;;5053595;28;20040;-79
2022/03/12 10:28:16;;;;;;;9.38;6.57;;;12.20;88.00;;;;;;5053763;28;20035;-79
2022/03/12 10:30:42;;;;;;;;;;;12.30;88.00;;;;;;5046266;28;20104;-79
2022/03/12 10:33:07;;;;;;;8.98;6.70;;;12.40;88.40;;;;;;5053644;28;19971;-79
2022/03/12 10:35:36;;;;;;;8.43;6.88;;;12.50;88.20;;;;;;5070120;28;20135;-79
2022/03/12 10:38:08;;;;;;;8.55;6.30;;;12.50;88.10;;;;;;5070192;28;20040;-79
2022/03/12 10:40:34;;;;;;;10.95;8.57;;;12.70;89.10;;;;;;5069952;28;20078;-80
2022/03/12 10:43:05;;;;;;;14.50;9.52;;;12.80;90.00;;;;;;5053431;28;20040;-79
2022/03/12 10:45:40;;;;;;;18.40;11.63;;;12.90;91.10;;;;;;5068272;28;20087;-79
2022/03/12 10:48:06;;;;;;;11.07;9.02;;;12.80;91.80;;;;;;5047499;28;20083;-80
2022/03/12 10:50:43;;;;;;;16.30;11.85;;;13.00;92.30;;;;;;5050609;28;20514;-80
2022/03/12 10:53:10;;;;;;;;;;;12.90;92.40;;;;;;5070399;28;20091;-80
2022/03/12 10:55:41;;;;;;;18.42;13.63;;;12.80;92.90;;;;;;5053107;28;19963;-80
2022/03/12 10:58:21;;;;;;;16.50;14.02;;;12.80;93.40;;;;;;5054067;28;20101;-80
2022/03/12 11:00:55;;;;;;;21.10;16.73;;;12.90;93.30;;;;;;5052472;28;20491;-80
2022/03/12 11:03:24;;;;;;;29.42;21.73;;;13.10;93.40;;;;;;5069333;28;20028;-78
2022/03/12 11:05:52;;;;;;;21.17;15.57;;;13.20;93.30;;;;;;5069097;28;20032;-80
2022/03/12 11:08:23;;;;;;;13.82;9.32;;;13.20;93.00;;;;;;5052746;28;20040;-79
2022/03/12 11:10:54;;;;;;;13.07;9.38;;;13.30;92.90;;;;;;5052520;28;20039;-79
2022/03/12 11:13:49;;;;;;;12.68;9.48;;;13.20;93.10;;;;;;5069550;28;20075;-79
2022/03/12 11:16:29;;;;;;;19.77;15.38;;;13.40;93.10;;;;;;5063147;28;20075;-79
2022/03/12 11:19:12;;;;;;;12.98;9.63;;;13.40;93.50;;;;;;5052635;28;20086;-79
2022/03/12 11:21:50;;;;;;;11.13;7.63;;;13.60;93.20;;;;;;5036735;28;20044;-79
2022/03/12 11:24:42;;;;;;;8.45;7.00;;;13.80;93.40;;;;;;5063051;28;20123;-79
2022/03/12 11:27:12;;;;;;;9.75;6.63;;;14.10;92.80;;;;;;5061930;28;20134;-80
2022/03/12 11:29:39;;;;;;;16.58;13.35;;;14.40;92.30;;;;;;5052903;28;20055;-80
2022/03/12 11:32:09;;;;;;;34.75;26.67;;;14.40;91.90;;;;;;5052167;28;20036;-79
2022/03/12 11:34:40;;;;;;;32.67;22.95;;;14.60;92.30;;;;;;5069178;28;20135;-79
2022/03/12 11:37:18;;;;;;;15.95;12.00;;;14.50;93.10;;;;;;5068838;28;20193;-80
2022/03/12 11:39:55;;;;;;;18.73;11.35;;;14.60;93.30;;;;;;5052682;28;20039;-80
2022/03/12 11:42:31;;;;;;;20.02;13.35;;;14.60;94.10;;;;;;5052303;28;20379;-80
2022/03/12 11:44:58;;;;;;;;;;;14.50;94.90;;;;;;5069292;28;20408;-80
2022/03/12 11:47:26;;;;;;;10.32;6.82;;;14.60;94.40;;;;;;5068945;28;19916;-79
2022/03/12 11:49:55;;;;;;;13.38;8.73;;;14.60;94.30;;;;;;5068597;28;20079;-79
2022/03/12 11:52:21;;;;;;;8.45;6.50;;;14.70;94.90;;;;;;5068974;28;20032;-79
2022/03/12 11:54:50;;;;;;;8.55;5.88;;;14.50;94.70;;;;;;5068670;28;20048;-79
2022/03/12 11:57:34;;;;;;;8.00;6.10;;;14.60;95.00;;;;;;5059727;28;20052;-79
2022/03/12 12:00:01;;;;;;;9.82;6.68;;;14.50;94.50;;;;;;5068524;28;20504;-79
2022/03/12 12:02:32;;;;;;;10.13;7.50;;;14.40;95.30;;;;;;5035924;28;20037;-79
2022/03/12 12:05:08;;;;;;;19.88;12.10;;;14.40;95.10;;;;;;5068725;28;20044;-80
2022/03/12 12:07:38;;;;;;;10.95;7.07;;;14.30;95.10;;;;;;5052196;28;20119;-79
2022/03/12 12:10:29;;;;;;;7.10;5.53;;;14.60;94.90;;;;;;5051309;28;20036;-81
2022/03/12 12:12:54;;;;;;;9.80;6.63;;;14.70;94.90;;;;;;5065854;28;20153;-80
2022/03/12 12:15:31;;;;;;;9.45;6.55;;;14.90;94.60;;;;;;5068438;28;20183;-80
2022/03/12 12:17:57;;;;;;;8.27;5.55;;;15.30;94.30;;;;;;5052977;28;20070;-80
2022/03/12 12:20:23;;;;;;;7.97;5.40;;;15.40;93.40;;;;;;5052035;28;20464;-79
2022/03/12 12:22:50;;;;;;;8.25;4.90;;;15.20;93.10;;;;;;5051842;28;20083;-79
2022/03/12 12:25:19;;;;;;;8.05;4.40;;;15.20;93.00;;;;;;5051672;28;20464;-79
2022/03/12 12:27:46;;;;;;;7.70;4.68;;;15.10;92.90;;;;;;5035058;28;20094;-79
2022/03/12 12:30:16;;;;;;;8.38;4.78;;;15.20;93.10;;;;;;5068080;28;20599;-80
2022/03/12 12:32:47;;;;;;;5.85;4.47;;;15.20;93.20;;;;;;5051731;28;20048;-79
2022/03/12 12:35:17;;;;;;;7.22;4.55;;;15.10;92.90;;;;;;5051667;28;20051;-79
2022/03/12 12:37:47;;;;;;;6.25;5.18;;;15.10;93.00;;;;;;5051484;28;20044;-79
2022/03/12 12:40:36;;;;;;;7.15;4.82;;;15.20;93.20;;;;;;5068266;28;20464;-79
2022/03/12 12:43:13;;;;;;;6.18;4.53;;;15.10;92.50;;;;;;5051268;28;20052;-79
2022/03/12 12:45:54;;;;;;;7.43;4.63;;;15.20;92.20;;;;;;5068009;28;20531;-79
2022/03/12 12:48:38;;;;;;;6.15;4.47;;;15.00;92.20;;;;;;5051684;28;20037;-79
2022/03/12 12:51:09;;;;;;;6.97;4.78;;;14.90;92.20;;;;;;5051592;28;20045;-80
2022/03/12 12:53:39;;;;;;;6.80;4.38;;;14.90;92.50;;;;;;5068640;28;20040;-80
2022/03/12 12:56:19;;;;;;;6.38;4.68;;;14.90;92.60;;;;;;5067715;28;20070;-79
2022/03/12 12:58:52;;;;;;;7.35;4.32;;;14.90;92.90;;;;;;5068402;28;20044;-80
2022/03/12 13:01:45;;;;;;;5.90;4.32;;;14.90;92.40;;;;;;5068263;28;20080;-80